sensor_id;sensor_type;location;lat;lon;timestamp;temperature;humidity
25188;DHT22;13141;50.414;8.050;2023-03-23T00:00:28;15.00;97.80
25188;DHT22;13141;50.414;8.050;2023-03-23T00:02:54;15.00;98.40
25188;DHT22;13141;50.414;8.050;2023-03-23T00:05:19;14.90;98.60
25188;DHT22;13141;50.414;8.050;2023-03-23T00:07:46;14.70;99.10
25188;DHT22;13141;50.414;8.050;2023-03-23T00:10:12;14.80;99.30
25188;DHT22;13141;50.414;8.050;2023-03-23T00:12:37;14.80;99.40
25188;DHT22;13141;50.414;8.050;2023-03-23T00:15:06;14.80;99.90
25188;DHT22;13141;50.414;8.050;2023-03-23T00:17:32;14.80;99.90
25188;DHT22;13141;50.414;8.050;2023-03-23T00:19:57;14.70;99.90
25188;DHT22;13141;50.414;8.050;2023-03-23T00:22:23;14.70;99.90
25188;DHT22;13141;50.414;8.050;2023-03-23T00:24:51;14.80;99.90
25188;DHT22;13141;50.414;8.050;2023-03-23T00:27:16;14.60;99.90
25188;DHT22;13141;50.414;8.050;2023-03-23T00:29:42;14.50;99.90
25188;DHT22;13141;50.414;8.050;2023-03-23T00:32:08;14.50;99.90
25188;DHT22;13141;50.414;8.050;2023-03-23T00:34:34;14.60;99.90
25188;DHT22;13141;50.414;8.050;2023-03-23T00:36:59;14.40;99.90
25188;DHT22;13141;50.414;8.050;2023-03-23T00:39:26;14.40;99.90
25188;DHT22;13141;50.414;8.050;2023-03-23T00:41:54;14.30;99.90
25188;DHT22;13141;50.414;8.050;2023-03-23T00:44:20;14.30;99.90
25188;DHT22;13141;50.414;8.050;2023-03-23T00:46:46;14.10;99.90
25188;DHT22;13141;50.414;8.050;2023-03-23T00:49:13;14.00;99.90
25188;DHT22;13141;50.414;8.050;2023-03-23T00:51:39;13.80;99.90
25188;DHT22;13141;50.414;8.050;2023-03-23T00:54:05;13.70;99.90
25188;DHT22;13141;50.414;8.050;2023-03-23T00:56:30;13.70;99.90
25188;DHT22;13141;50.414;8.050;2023-03-23T00:58:57;13.60;99.90
25188;DHT22;13141;50.414;8.050;2023-03-23T01:01:23;13.60;99.90
25188;DHT22;13141;50.414;8.050;2023-03-23T01:03:48;13.60;99.90
25188;DHT22;13141;50.414;8.050;2023-03-23T01:06:14;13.50;99.90
25188;DHT22;13141;50.414;8.050;2023-03-23T01:08:40;13.60;99.90
25188;DHT22;13141;50.414;8.050;2023-03-23T01:11:07;13.50;99.90
25188;DHT22;13141;50.414;8.050;2023-03-23T01:13:33;13.50;99.90
25188;DHT22;13141;50.414;8.050;2023-03-23T01:16:00;13.50;99.90
25188;DHT22;13141;50.414;8.050;2023-03-23T01:18:25;13.50;99.90
25188;DHT22;13141;50.414;8.050;2023-03-23T01:20:51;13.50;99.90
25188;DHT22;13141;50.414;8.050;2023-03-23T01:23:17;13.60;99.90
25188;DHT22;13141;50.414;8.050;2023-03-23T01:25:42;13.60;99.90
25188;DHT22;13141;50.414;8.050;2023-03-23T01:28:08;13.70;99.90
25188;DHT22;13141;50.414;8.050;2023-03-23T01:30:33;13.70;99.90
25188;DHT22;13141;50.414;8.050;2023-03-23T01:33:00;13.70;99.90
25188;DHT22;13141;50.414;8.050;2023-03-23T01:35:26;13.70;99.90
25188;DHT22;13141;50.414;8.050;2023-03-23T01:37:51;13.70;99.90
25188;DHT22;13141;50.414;8.050;2023-03-23T01:40:17;13.70;99.90
25188;DHT22;13141;50.414;8.050;2023-03-23T01:42:43;13.70;99.90
25188;DHT22;13141;50.414;8.050;2023-03-23T01:45:25;13.60;99.90
25188;DHT22;13141;50.414;8.050;2023-03-23T01:47:56;13.60;99.90
25188;DHT22;13141;50.414;8.050;2023-03-23T01:50:25;13.60;99.90
25188;DHT22;13141;50.414;8.050;2023-03-23T01:52:53;13.60;99.90
25188;DHT22;13141;50.414;8.050;2023-03-23T01:55:20;13.50;99.90
25188;DHT22;13141;50.414;8.050;2023-03-23T01:57:47;13.50;99.90
25188;DHT22;13141;50.414;8.050;2023-03-23T02:00:14;13.50;99.90
25188;DHT22;13141;50.414;8.050;2023-03-23T02:02:41;13.50;99.90
25188;DHT22;13141;50.414;8.050;2023-03-23T02:05:11;13.60;99.90
25188;DHT22;13141;50.414;8.050;2023-03-23T02:07:38;13.60;99.90
25188;DHT22;13141;50.414;8.050;2023-03-23T02:10:04;13.60;99.90
25188;DHT22;13141;50.414;8.050;2023-03-23T02:12:30;13.60;99.90
25188;DHT22;13141;50.414;8.050;2023-03-23T02:14:56;13.60;99.90
25188;DHT22;13141;50.414;8.050;2023-03-23T02:17:27;13.60;99.90
25188;DHT22;13141;50.414;8.050;2023-03-23T02:20:06;13.70;99.90
25188;DHT22;13141;50.414;8.050;2023-03-23T02:25:53;13.70;99.90
25188;DHT22;13141;50.414;8.050;2023-03-23T02:28:37;13.60;99.90
25188;DHT22;13141;50.414;8.050;2023-03-23T02:31:39;13.60;99.90
25188;DHT22;13141;50.414;8.050;2023-03-23T02:34:12;13.60;99.90
25188;DHT22;13141;50.414;8.050;2023-03-23T02:36:42;13.60;99.90
25188;DHT22;13141;50.414;8.050;2023-03-23T02:39:13;13.60;99.90
25188;DHT22;13141;50.414;8.050;2023-03-23T02:41:43;13.50;99.90
25188;DHT22;13141;50.414;8.050;2023-03-23T02:44:15;13.50;99.90
25188;DHT22;13141;50.414;8.050;2023-03-23T02:46:42;13.50;99.90
25188;DHT22;13141;50.414;8.050;2023-03-23T02:49:12;13.50;99.90
25188;DHT22;13141;50.414;8.050;2023-03-23T02:51:40;13.50;99.90
25188;DHT22;13141;50.414;8.050;2023-03-23T02:54:07;13.50;99.90
25188;DHT22;13141;50.414;8.050;2023-03-23T02:56:34;13.50;99.90
25188;DHT22;13141;50.414;8.050;2023-03-23T02:59:01;13.50;99.90
25188;DHT22;13141;50.414;8.050;2023-03-23T03:01:50;13.50;99.90
25188;DHT22;13141;50.414;8.050;2023-03-23T03:04:22;13.50;99.90
25188;DHT22;13141;50.414;8.050;2023-03-23T03:06:55;13.50;99.90
25188;DHT22;13141;50.414;8.050;2023-03-23T03:09:30;13.50;99.90
25188;DHT22;13141;50.414;8.050;2023-03-23T03:12:04;13.40;99.90
25188;DHT22;13141;50.414;8.050;2023-03-23T03:14:36;13.40;99.90
25188;DHT22;13141;50.414;8.050;2023-03-23T03:17:05;13.30;99.90
25188;DHT22;13141;50.414;8.050;2023-03-23T03:19:37;13.40;99.90
25188;DHT22;13141;50.414;8.050;2023-03-23T03:22:05;13.40;99.90
25188;DHT22;13141;50.414;8.050;2023-03-23T03:24:31;13.40;99.90
25188;DHT22;13141;50.414;8.050;2023-03-23T03:26:59;13.40;99.90
25188;DHT22;13141;50.414;8.050;2023-03-23T03:29:28;13.30;99.90
25188;DHT22;13141;50.414;8.050;2023-03-23T03:31:56;13.30;99.90
25188;DHT22;13141;50.414;8.050;2023-03-23T03:34:23;13.20;99.90
25188;DHT22;13141;50.414;8.050;2023-03-23T03:36:52;13.20;99.90
25188;DHT22;13141;50.414;8.050;2023-03-23T03:39:19;13.30;99.90
25188;DHT22;13141;50.414;8.050;2023-03-23T03:41:44;13.20;99.90
25188;DHT22;13141;50.414;8.050;2023-03-23T03:44:11;13.10;99.90
25188;DHT22;13141;50.414;8.050;2023-03-23T03:46:37;13.10;99.90
25188;DHT22;13141;50.414;8.050;2023-03-23T03:49:04;13.10;99.90
25188;DHT22;13141;50.414;8.050;2023-03-23T03:51:31;13.00;99.90
25188;DHT22;13141;50.414;8.050;2023-03-23T03:53:58;12.90;99.90
25188;DHT22;13141;50.414;8.050;2023-03-23T03:56:24;12.90;99.90
25188;DHT22;13141;50.414;8.050;2023-03-23T03:58:50;12.90;99.90
25188;DHT22;13141;50.414;8.050;2023-03-23T04:01:17;12.90;99.90
25188;DHT22;13141;50.414;8.050;2023-03-23T04:03:43;12.90;99.90
25188;DHT22;13141;50.414;8.050;2023-03-23T04:06:09;12.90;99.90
25188;DHT22;13141;50.414;8.050;2023-03-23T04:08:36;13.00;99.90
25188;DHT22;13141;50.414;8.050;2023-03-23T04:11:04;12.90;99.90
25188;DHT22;13141;50.414;8.050;2023-03-23T04:13:29;13.00;99.90
25188;DHT22;13141;50.414;8.050;2023-03-23T04:15:55;13.10;99.90
25188;DHT22;13141;50.414;8.050;2023-03-23T04:18:21;13.10;99.90
25188;DHT22;13141;50.414;8.050;2023-03-23T04:20:47;13.10;99.90
25188;DHT22;13141;50.414;8.050;2023-03-23T04:23:14;13.00;99.90
25188;DHT22;13141;50.414;8.050;2023-03-23T04:25:39;12.90;99.90
25188;DHT22;13141;50.414;8.050;2023-03-23T04:28:06;12.90;99.90
25188;DHT22;13141;50.414;8.050;2023-03-23T04:30:32;12.90;99.90
25188;DHT22;13141;50.414;8.050;2023-03-23T04:32:57;12.90;99.90
25188;DHT22;13141;50.414;8.050;2023-03-23T04:35:24;12.90;99.90
25188;DHT22;13141;50.414;8.050;2023-03-23T04:37:49;12.80;99.90
25188;DHT22;13141;50.414;8.050;2023-03-23T04:40:16;12.80;99.90
25188;DHT22;13141;50.414;8.050;2023-03-23T04:42:43;12.80;99.90
25188;DHT22;13141;50.414;8.050;2023-03-23T04:45:10;12.80;99.90
25188;DHT22;13141;50.414;8.050;2023-03-23T04:47:36;12.70;99.90
25188;DHT22;13141;50.414;8.050;2023-03-23T04:50:02;12.80;99.90
25188;DHT22;13141;50.414;8.050;2023-03-23T04:52:28;12.80;99.90
25188;DHT22;13141;50.414;8.050;2023-03-23T04:54:54;12.80;99.90
25188;DHT22;13141;50.414;8.050;2023-03-23T04:57:19;12.80;99.90
25188;DHT22;13141;50.414;8.050;2023-03-23T04:59:45;12.80;99.90
25188;DHT22;13141;50.414;8.050;2023-03-23T05:02:12;12.80;99.90
25188;DHT22;13141;50.414;8.050;2023-03-23T05:04:37;12.80;99.90
25188;DHT22;13141;50.414;8.050;2023-03-23T05:07:03;12.90;99.90
25188;DHT22;13141;50.414;8.050;2023-03-23T05:09:28;12.90;99.90
25188;DHT22;13141;50.414;8.050;2023-03-23T05:11:54;12.90;99.90
25188;DHT22;13141;50.414;8.050;2023-03-23T05:14:20;12.90;99.90
25188;DHT22;13141;50.414;8.050;2023-03-23T05:16:45;13.00;99.90
25188;DHT22;13141;50.414;8.050;2023-03-23T05:19:12;13.00;99.90
25188;DHT22;13141;50.414;8.050;2023-03-23T05:21:38;12.90;99.90
25188;DHT22;13141;50.414;8.050;2023-03-23T05:24:04;12.90;99.90
25188;DHT22;13141;50.414;8.050;2023-03-23T05:26:30;13.00;99.90
25188;DHT22;13141;50.414;8.050;2023-03-23T05:28:56;13.10;99.90
25188;DHT22;13141;50.414;8.050;2023-03-23T05:31:22;13.10;99.90
25188;DHT22;13141;50.414;8.050;2023-03-23T05:33:48;13.10;99.90
25188;DHT22;13141;50.414;8.050;2023-03-23T05:36:15;13.00;99.90
25188;DHT22;13141;50.414;8.050;2023-03-23T05:38:40;13.00;99.90
25188;DHT22;13141;50.414;8.050;2023-03-23T05:41:06;13.00;99.90
25188;DHT22;13141;50.414;8.050;2023-03-23T05:43:31;12.90;99.90
25188;DHT22;13141;50.414;8.050;2023-03-23T05:45:57;12.90;99.90
25188;DHT22;13141;50.414;8.050;2023-03-23T05:48:23;13.00;99.90
25188;DHT22;13141;50.414;8.050;2023-03-23T05:50:48;13.00;99.90
25188;DHT22;13141;50.414;8.050;2023-03-23T05:53:15;13.00;99.90
25188;DHT22;13141;50.414;8.050;2023-03-23T05:55:41;13.10;99.90
25188;DHT22;13141;50.414;8.050;2023-03-23T05:58:06;13.10;99.90
25188;DHT22;13141;50.414;8.050;2023-03-23T06:00:32;13.20;99.90
25188;DHT22;13141;50.414;8.050;2023-03-23T06:02:58;13.20;99.90
25188;DHT22;13141;50.414;8.050;2023-03-23T06:05:23;13.20;99.90
25188;DHT22;13141;50.414;8.050;2023-03-23T06:07:49;13.20;99.90
25188;DHT22;13141;50.414;8.050;2023-03-23T06:10:16;13.20;99.90
25188;DHT22;13141;50.414;8.050;2023-03-23T06:12:43;13.20;99.90
25188;DHT22;13141;50.414;8.050;2023-03-23T06:15:09;13.10;99.90
25188;DHT22;13141;50.414;8.050;2023-03-23T06:17:35;13.10;99.90
25188;DHT22;13141;50.414;8.050;2023-03-23T06:20:01;13.20;99.90
25188;DHT22;13141;50.414;8.050;2023-03-23T06:22:26;13.20;99.90
25188;DHT22;13141;50.414;8.050;2023-03-23T06:24:52;13.20;99.90
25188;DHT22;13141;50.414;8.050;2023-03-23T06:27:19;13.20;99.90
25188;DHT22;13141;50.414;8.050;2023-03-23T06:29:45;13.30;99.90
25188;DHT22;13141;50.414;8.050;2023-03-23T06:32:11;13.30;99.90
25188;DHT22;13141;50.414;8.050;2023-03-23T06:34:38;13.30;99.90
25188;DHT22;13141;50.414;8.050;2023-03-23T06:37:03;13.30;99.90
25188;DHT22;13141;50.414;8.050;2023-03-23T06:39:29;13.40;99.90
25188;DHT22;13141;50.414;8.050;2023-03-23T06:41:56;13.30;99.90
25188;DHT22;13141;50.414;8.050;2023-03-23T06:44:23;13.30;99.90
25188;DHT22;13141;50.414;8.050;2023-03-23T06:46:49;13.20;99.90
25188;DHT22;13141;50.414;8.050;2023-03-23T06:49:15;13.20;99.90
25188;DHT22;13141;50.414;8.050;2023-03-23T06:51:40;13.30;99.90
25188;DHT22;13141;50.414;8.050;2023-03-23T06:54:06;13.30;99.90
25188;DHT22;13141;50.414;8.050;2023-03-23T06:56:31;13.30;99.90
25188;DHT22;13141;50.414;8.050;2023-03-23T06:58:57;13.30;99.90
25188;DHT22;13141;50.414;8.050;2023-03-23T07:01:24;13.30;99.90
25188;DHT22;13141;50.414;8.050;2023-03-23T07:03:50;13.20;99.90
25188;DHT22;13141;50.414;8.050;2023-03-23T07:06:15;13.40;99.90
25188;DHT22;13141;50.414;8.050;2023-03-23T07:08:41;13.30;99.90
25188;DHT22;13141;50.414;8.050;2023-03-23T07:11:08;13.20;99.90
25188;DHT22;13141;50.414;8.050;2023-03-23T07:13:34;13.20;99.90
25188;DHT22;13141;50.414;8.050;2023-03-23T07:15:59;13.30;99.90
25188;DHT22;13141;50.414;8.050;2023-03-23T07:18:26;13.40;99.90
25188;DHT22;13141;50.414;8.050;2023-03-23T07:20:53;13.40;99.90
25188;DHT22;13141;50.414;8.050;2023-03-23T07:23:19;13.30;99.90
25188;DHT22;13141;50.414;8.050;2023-03-23T07:25:45;13.30;99.90
25188;DHT22;13141;50.414;8.050;2023-03-23T07:28:11;13.30;99.90
25188;DHT22;13141;50.414;8.050;2023-03-23T07:30:37;13.40;99.90
25188;DHT22;13141;50.414;8.050;2023-03-23T07:33:05;13.50;99.90
25188;DHT22;13141;50.414;8.050;2023-03-23T07:35:32;13.60;99.90
25188;DHT22;13141;50.414;8.050;2023-03-23T07:37:58;13.60;99.90
25188;DHT22;13141;50.414;8.050;2023-03-23T07:40:24;13.60;99.90
25188;DHT22;13141;50.414;8.050;2023-03-23T07:42:52;13.50;99.90
25188;DHT22;13141;50.414;8.050;2023-03-23T07:45:18;13.50;99.90
25188;DHT22;13141;50.414;8.050;2023-03-23T07:47:44;13.50;99.90
25188;DHT22;13141;50.414;8.050;2023-03-23T07:50:10;13.60;99.90
25188;DHT22;13141;50.414;8.050;2023-03-23T07:52:37;13.60;99.90
25188;DHT22;13141;50.414;8.050;2023-03-23T07:55:04;13.60;99.90
25188;DHT22;13141;50.414;8.050;2023-03-23T07:57:30;13.50;99.90
25188;DHT22;13141;50.414;8.050;2023-03-23T07:59:57;13.60;99.90
25188;DHT22;13141;50.414;8.050;2023-03-23T08:02:23;13.60;99.90
25188;DHT22;13141;50.414;8.050;2023-03-23T08:04:49;13.60;99.90
25188;DHT22;13141;50.414;8.050;2023-03-23T08:07:15;13.60;99.90
25188;DHT22;13141;50.414;8.050;2023-03-23T08:09:42;13.70;99.90
25188;DHT22;13141;50.414;8.050;2023-03-23T08:12:07;13.70;99.90
25188;DHT22;13141;50.414;8.050;2023-03-23T08:14:33;13.80;99.90
25188;DHT22;13141;50.414;8.050;2023-03-23T08:16:59;13.90;99.90
25188;DHT22;13141;50.414;8.050;2023-03-23T08:19:24;13.90;99.90
25188;DHT22;13141;50.414;8.050;2023-03-23T08:21:50;13.90;99.90
25188;DHT22;13141;50.414;8.050;2023-03-23T08:24:16;13.80;99.90
25188;DHT22;13141;50.414;8.050;2023-03-23T08:26:42;13.80;99.90
25188;DHT22;13141;50.414;8.050;2023-03-23T08:29:08;13.90;99.90
25188;DHT22;13141;50.414;8.050;2023-03-23T08:31:34;14.00;99.90
25188;DHT22;13141;50.414;8.050;2023-03-23T08:34:00;14.00;99.90
25188;DHT22;13141;50.414;8.050;2023-03-23T08:36:25;14.00;99.90
25188;DHT22;13141;50.414;8.050;2023-03-23T08:38:51;14.00;99.90
25188;DHT22;13141;50.414;8.050;2023-03-23T08:41:17;14.00;99.90
25188;DHT22;13141;50.414;8.050;2023-03-23T08:43:44;14.10;99.90
25188;DHT22;13141;50.414;8.050;2023-03-23T08:46:10;13.80;99.90
25188;DHT22;13141;50.414;8.050;2023-03-23T08:48:35;14.20;99.90
25188;DHT22;13141;50.414;8.050;2023-03-23T08:51:01;14.30;99.90
25188;DHT22;13141;50.414;8.050;2023-03-23T08:53:27;14.30;99.90
25188;DHT22;13141;50.414;8.050;2023-03-23T08:55:52;14.30;99.90
25188;DHT22;13141;50.414;8.050;2023-03-23T08:58:18;14.30;99.90
25188;DHT22;13141;50.414;8.050;2023-03-23T09:00:45;14.30;99.90
25188;DHT22;13141;50.414;8.050;2023-03-23T09:03:10;14.30;99.90
25188;DHT22;13141;50.414;8.050;2023-03-23T09:05:36;14.40;99.90
25188;DHT22;13141;50.414;8.050;2023-03-23T09:08:01;14.60;99.90
25188;DHT22;13141;50.414;8.050;2023-03-23T09:10:28;14.60;99.90
25188;DHT22;13141;50.414;8.050;2023-03-23T09:12:54;14.60;99.90
25188;DHT22;13141;50.414;8.050;2023-03-23T09:15:20;14.70;99.90
25188;DHT22;13141;50.414;8.050;2023-03-23T09:17:48;14.60;99.90
25188;DHT22;13141;50.414;8.050;2023-03-23T09:20:16;14.70;99.90
25188;DHT22;13141;50.414;8.050;2023-03-23T09:22:43;14.70;99.90
25188;DHT22;13141;50.414;8.050;2023-03-23T09:25:11;14.70;99.90
25188;DHT22;13141;50.414;8.050;2023-03-23T09:27:38;14.70;99.90
25188;DHT22;13141;50.414;8.050;2023-03-23T09:30:04;14.80;99.90
25188;DHT22;13141;50.414;8.050;2023-03-23T09:32:30;14.80;99.90
25188;DHT22;13141;50.414;8.050;2023-03-23T09:34:57;14.80;99.90
25188;DHT22;13141;50.414;8.050;2023-03-23T09:37:22;14.80;99.90
25188;DHT22;13141;50.414;8.050;2023-03-23T09:39:48;14.70;99.90
25188;DHT22;13141;50.414;8.050;2023-03-23T09:42:28;14.70;99.90
25188;DHT22;13141;50.414;8.050;2023-03-23T09:45:05;14.70;99.90
25188;DHT22;13141;50.414;8.050;2023-03-23T09:47:37;14.70;99.90
25188;DHT22;13141;50.414;8.050;2023-03-23T09:50:11;14.70;99.90
25188;DHT22;13141;50.414;8.050;2023-03-23T09:52:43;14.60;99.90
25188;DHT22;13141;50.414;8.050;2023-03-23T09:55:14;14.60;99.90
25188;DHT22;13141;50.414;8.050;2023-03-23T09:57:45;14.70;99.90
25188;DHT22;13141;50.414;8.050;2023-03-23T10:00:16;14.60;99.90
25188;DHT22;13141;50.414;8.050;2023-03-23T10:02:48;14.50;99.90
25188;DHT22;13141;50.414;8.050;2023-03-23T10:05:26;14.50;99.90
25188;DHT22;13141;50.414;8.050;2023-03-23T10:07:53;14.50;99.90
25188;DHT22;13141;50.414;8.050;2023-03-23T10:10:19;14.50;99.90
25188;DHT22;13141;50.414;8.050;2023-03-23T10:12:52;14.60;99.90
25188;DHT22;13141;50.414;8.050;2023-03-23T10:15:23;14.40;99.90
25188;DHT22;13141;50.414;8.050;2023-03-23T10:17:52;14.60;99.90
25188;DHT22;13141;50.414;8.050;2023-03-23T10:20:32;14.60;99.90
25188;DHT22;13141;50.414;8.050;2023-03-23T10:23:08;14.60;99.90
25188;DHT22;13141;50.414;8.050;2023-03-23T10:25:37;14.60;99.90
25188;DHT22;13141;50.414;8.050;2023-03-23T10:28:10;14.60;99.90
25188;DHT22;13141;50.414;8.050;2023-03-23T10:30:38;14.70;99.90
25188;DHT22;13141;50.414;8.050;2023-03-23T10:33:08;14.90;99.90
25188;DHT22;13141;50.414;8.050;2023-03-23T10:35:44;14.90;99.90
25188;DHT22;13141;50.414;8.050;2023-03-23T10:38:15;15.00;99.90
25188;DHT22;13141;50.414;8.050;2023-03-23T10:40:48;15.00;99.90
25188;DHT22;13141;50.414;8.050;2023-03-23T10:43:14;15.10;99.90
25188;DHT22;13141;50.414;8.050;2023-03-23T10:45:40;15.20;99.90
25188;DHT22;13141;50.414;8.050;2023-03-23T10:48:12;15.30;99.90
25188;DHT22;13141;50.414;8.050;2023-03-23T10:50:41;15.60;99.90
25188;DHT22;13141;50.414;8.050;2023-03-23T10:53:14;15.70;99.90
25188;DHT22;13141;50.414;8.050;2023-03-23T10:55:42;15.80;99.90
25188;DHT22;13141;50.414;8.050;2023-03-23T10:58:10;15.70;99.90
25188;DHT22;13141;50.414;8.050;2023-03-23T11:00:41;15.70;99.90
25188;DHT22;13141;50.414;8.050;2023-03-23T11:03:27;15.90;99.90
25188;DHT22;13141;50.414;8.050;2023-03-23T11:05:57;15.50;99.90
25188;DHT22;13141;50.414;8.050;2023-03-23T11:08:25;15.40;99.90
25188;DHT22;13141;50.414;8.050;2023-03-23T11:10:53;15.30;99.90
25188;DHT22;13141;50.414;8.050;2023-03-23T11:13:21;15.30;99.90
25188;DHT22;13141;50.414;8.050;2023-03-23T11:15:48;15.10;99.90
25188;DHT22;13141;50.414;8.050;2023-03-23T11:18:19;15.00;99.90
25188;DHT22;13141;50.414;8.050;2023-03-23T11:20:46;15.00;99.90
25188;DHT22;13141;50.414;8.050;2023-03-23T11:23:20;15.20;99.90
25188;DHT22;13141;50.414;8.050;2023-03-23T11:26:01;15.30;99.90
25188;DHT22;13141;50.414;8.050;2023-03-23T11:28:31;15.20;99.90
25188;DHT22;13141;50.414;8.050;2023-03-23T11:30:59;14.80;99.90
25188;DHT22;13141;50.414;8.050;2023-03-23T11:33:29;15.40;99.90
25188;DHT22;13141;50.414;8.050;2023-03-23T11:35:54;15.60;99.90
25188;DHT22;13141;50.414;8.050;2023-03-23T11:38:23;15.60;99.90
25188;DHT22;13141;50.414;8.050;2023-03-23T11:40:51;15.70;99.90
25188;DHT22;13141;50.414;8.050;2023-03-23T11:43:20;15.80;99.90
25188;DHT22;13141;50.414;8.050;2023-03-23T11:45:48;15.70;99.90
25188;DHT22;13141;50.414;8.050;2023-03-23T11:48:21;15.70;99.90
25188;DHT22;13141;50.414;8.050;2023-03-23T11:50:52;15.60;99.90
25188;DHT22;13141;50.414;8.050;2023-03-23T11:53:31;15.60;99.90
25188;DHT22;13141;50.414;8.050;2023-03-23T11:56:17;15.90;99.90
25188;DHT22;13141;50.414;8.050;2023-03-23T11:58:44;15.90;99.90
25188;DHT22;13141;50.414;8.050;2023-03-23T12:01:18;16.10;99.90
25188;DHT22;13141;50.414;8.050;2023-03-23T12:04:13;16.30;99.90
25188;DHT22;13141;50.414;8.050;2023-03-23T12:06:49;16.40;99.90
25188;DHT22;13141;50.414;8.050;2023-03-23T12:09:25;16.40;99.90
25188;DHT22;13141;50.414;8.050;2023-03-23T12:12:01;16.40;99.90
25188;DHT22;13141;50.414;8.050;2023-03-23T12:14:40;16.10;99.90
25188;DHT22;13141;50.414;8.050;2023-03-23T12:17:17;16.30;99.90
25188;DHT22;13141;50.414;8.050;2023-03-23T12:19:50;16.00;99.90
25188;DHT22;13141;50.414;8.050;2023-03-23T12:22:28;16.20;99.90
25188;DHT22;13141;50.414;8.050;2023-03-23T12:25:09;16.20;99.90
25188;DHT22;13141;50.414;8.050;2023-03-23T12:27:42;16.40;99.90
25188;DHT22;13141;50.414;8.050;2023-03-23T12:30:24;16.20;99.90
25188;DHT22;13141;50.414;8.050;2023-03-23T12:33:03;16.30;99.90
25188;DHT22;13141;50.414;8.050;2023-03-23T12:35:42;16.30;99.90
25188;DHT22;13141;50.414;8.050;2023-03-23T12:38:32;16.20;99.90
25188;DHT22;13141;50.414;8.050;2023-03-23T12:41:10;16.10;99.90
25188;DHT22;13141;50.414;8.050;2023-03-23T12:43:43;16.30;99.90
25188;DHT22;13141;50.414;8.050;2023-03-23T12:46:22;16.40;99.90
25188;DHT22;13141;50.414;8.050;2023-03-23T12:48:52;16.30;99.90
25188;DHT22;13141;50.414;8.050;2023-03-23T12:51:27;16.30;99.90
25188;DHT22;13141;50.414;8.050;2023-03-23T12:54:07;16.40;99.90
25188;DHT22;13141;50.414;8.050;2023-03-23T12:56:39;16.50;99.90
25188;DHT22;13141;50.414;8.050;2023-03-23T12:59:12;16.60;99.90
25188;DHT22;13141;50.414;8.050;2023-03-23T13:01:41;16.70;99.90
25188;DHT22;13141;50.414;8.050;2023-03-23T13:04:11;17.00;99.90
25188;DHT22;13141;50.414;8.050;2023-03-23T13:06:39;17.30;99.90
25188;DHT22;13141;50.414;8.050;2023-03-23T13:09:10;17.90;99.90
25188;DHT22;13141;50.414;8.050;2023-03-23T13:11:39;18.50;99.30
25188;DHT22;13141;50.414;8.050;2023-03-23T13:14:15;18.70;98.90
25188;DHT22;13141;50.414;8.050;2023-03-23T13:16:49;18.50;98.70
25188;DHT22;13141;50.414;8.050;2023-03-23T13:19:23;18.30;98.20
25188;DHT22;13141;50.414;8.050;2023-03-23T13:21:57;18.30;98.00
25188;DHT22;13141;50.414;8.050;2023-03-23T13:24:33;18.50;98.50
25188;DHT22;13141;50.414;8.050;2023-03-23T13:27:02;18.80;97.60
25188;DHT22;13141;50.414;8.050;2023-03-23T13:29:28;19.10;97.80
25188;DHT22;13141;50.414;8.050;2023-03-23T13:32:05;19.30;96.30
25188;DHT22;13141;50.414;8.050;2023-03-23T13:34:31;19.20;97.10
25188;DHT22;13141;50.414;8.050;2023-03-23T13:36:59;19.30;96.90
25188;DHT22;13141;50.414;8.050;2023-03-23T13:39:27;19.10;96.70
25188;DHT22;13141;50.414;8.050;2023-03-23T13:42:04;18.80;96.60
25188;DHT22;13141;50.414;8.050;2023-03-23T13:44:42;19.10;97.20
25188;DHT22;13141;50.414;8.050;2023-03-23T13:47:20;18.80;96.00
25188;DHT22;13141;50.414;8.050;2023-03-23T13:49:50;18.50;96.40
25188;DHT22;13141;50.414;8.050;2023-03-23T13:52:21;18.30;96.90
25188;DHT22;13141;50.414;8.050;2023-03-23T13:54:47;18.20;97.60
25188;DHT22;13141;50.414;8.050;2023-03-23T13:57:26;18.10;97.40
25188;DHT22;13141;50.414;8.050;2023-03-23T13:59:57;17.90;97.10
25188;DHT22;13141;50.414;8.050;2023-03-23T14:02:38;17.80;98.00
25188;DHT22;13141;50.414;8.050;2023-03-23T14:05:36;17.60;98.50
25188;DHT22;13141;50.414;8.050;2023-03-23T14:08:11;17.50;98.30
25188;DHT22;13141;50.414;8.050;2023-03-23T14:10:40;17.40;98.70
25188;DHT22;13141;50.414;8.050;2023-03-23T14:13:14;17.40;99.00
25188;DHT22;13141;50.414;8.050;2023-03-23T14:15:43;17.20;99.00
25188;DHT22;13141;50.414;8.050;2023-03-23T14:18:13;17.20;98.90
25188;DHT22;13141;50.414;8.050;2023-03-23T14:20:40;17.30;99.20
25188;DHT22;13141;50.414;8.050;2023-03-23T14:23:12;17.30;99.20
25188;DHT22;13141;50.414;8.050;2023-03-23T14:25:39;17.50;99.00
25188;DHT22;13141;50.414;8.050;2023-03-23T14:28:18;17.40;99.10
25188;DHT22;13141;50.414;8.050;2023-03-23T14:30:44;17.50;99.00
25188;DHT22;13141;50.414;8.050;2023-03-23T14:33:11;17.40;98.90
25188;DHT22;13141;50.414;8.050;2023-03-23T14:35:40;17.20;99.00
25188;DHT22;13141;50.414;8.050;2023-03-23T14:38:14;17.40;99.50
25188;DHT22;13141;50.414;8.050;2023-03-23T14:40:40;17.50;99.50
25188;DHT22;13141;50.414;8.050;2023-03-23T14:43:09;17.50;99.30
25188;DHT22;13141;50.414;8.050;2023-03-23T14:45:38;17.30;99.00
25188;DHT22;13141;50.414;8.050;2023-03-23T14:48:06;17.30;99.20
25188;DHT22;13141;50.414;8.050;2023-03-23T14:50:37;17.20;99.50
25188;DHT22;13141;50.414;8.050;2023-03-23T14:53:11;17.10;99.60
25188;DHT22;13141;50.414;8.050;2023-03-23T14:55:37;17.00;99.50
25188;DHT22;13141;50.414;8.050;2023-03-23T14:58:08;17.10;99.60
25188;DHT22;13141;50.414;8.050;2023-03-23T15:00:39;16.90;99.70
25188;DHT22;13141;50.414;8.050;2023-03-23T15:03:10;17.10;99.80
25188;DHT22;13141;50.414;8.050;2023-03-23T15:05:38;16.80;99.90
25188;DHT22;13141;50.414;8.050;2023-03-23T15:08:10;17.00;99.90
25188;DHT22;13141;50.414;8.050;2023-03-23T15:10:37;16.80;99.90
25188;DHT22;13141;50.414;8.050;2023-03-23T15:13:02;16.90;99.90
25188;DHT22;13141;50.414;8.050;2023-03-23T15:15:30;16.80;99.90
25188;DHT22;13141;50.414;8.050;2023-03-23T15:17:59;16.70;99.90
25188;DHT22;13141;50.414;8.050;2023-03-23T15:20:27;16.70;99.90
25188;DHT22;13141;50.414;8.050;2023-03-23T15:22:53;16.70;99.90
25188;DHT22;13141;50.414;8.050;2023-03-23T15:25:21;16.70;99.90
25188;DHT22;13141;50.414;8.050;2023-03-23T15:27:52;16.60;99.90
25188;DHT22;13141;50.414;8.050;2023-03-23T15:30:31;16.60;99.90
25188;DHT22;13141;50.414;8.050;2023-03-23T15:33:02;16.60;99.90
25188;DHT22;13141;50.414;8.050;2023-03-23T15:35:34;16.60;99.90
25188;DHT22;13141;50.414;8.050;2023-03-23T15:38:02;16.50;99.90
25188;DHT22;13141;50.414;8.050;2023-03-23T15:40:33;16.50;99.90
25188;DHT22;13141;50.414;8.050;2023-03-23T15:43:13;16.50;99.90